createdAt,value
2023-04-29T00:00:30.863Z,87.00
2023-04-29T00:02:57.451Z,86.86
2023-04-29T00:05:24.474Z,86.42
2023-04-29T00:07:51.063Z,86.72
2023-04-29T00:10:17.612Z,87.13
2023-04-29T00:12:44.175Z,87.09
2023-04-29T00:15:11.027Z,86.48
2023-04-29T00:17:37.844Z,86.50
2023-04-29T00:20:07.550Z,87.17
2023-04-29T00:22:34.505Z,87.26
2023-04-29T00:25:00.977Z,87.33
2023-04-29T00:27:27.433Z,86.83
2023-04-29T00:29:54.610Z,86.94
2023-04-29T00:32:21.942Z,86.45
2023-04-29T00:34:48.554Z,87.29
2023-04-29T00:37:15.241Z,86.34
2023-04-29T00:39:42.094Z,87.31
2023-04-29T00:42:12.819Z,86.88
2023-04-29T00:44:39.347Z,87.21
2023-04-29T00:47:06.038Z,87.19
2023-04-29T00:49:32.533Z,86.59
2023-04-29T00:51:59.509Z,86.91
2023-04-29T00:54:26.055Z,86.39
2023-04-29T00:56:53.639Z,86.95
2023-04-29T00:59:21.186Z,87.27
2023-04-29T01:01:47.747Z,87.84
2023-04-29T01:04:15.229Z,87.58
2023-04-29T01:06:54.240Z,90.51
2023-04-29T01:09:58.525Z,91.93
2023-04-29T01:12:48.188Z,91.47
2023-04-29T01:15:29.304Z,90.42
2023-04-29T01:18:00.376Z,87.27
2023-04-29T01:20:27.563Z,87.65
2023-04-29T01:22:54.054Z,86.91
2023-04-29T01:25:20.525Z,86.53
2023-04-29T01:27:51.153Z,88.61
2023-04-29T01:30:27.206Z,87.16
2023-04-29T01:33:17.364Z,90.05
2023-04-29T01:36:41.370Z,91.77
2023-04-29T01:39:58.891Z,91.34
2023-04-29T01:42:46.361Z,91.30
2023-04-29T01:45:18.720Z,89.09
2023-04-29T01:47:47.234Z,88.11
2023-04-29T01:50:13.754Z,87.61
2023-04-29T01:52:40.292Z,87.34
2023-04-29T01:55:07.586Z,88.20
2023-04-29T01:57:34.458Z,88.28
2023-04-29T02:00:02.165Z,87.47
2023-04-29T02:02:28.788Z,87.34
2023-04-29T02:04:55.916Z,87.43
2023-04-29T02:07:22.733Z,88.10
2023-04-29T02:09:49.249Z,88.35
2023-04-29T02:12:15.741Z,88.04
2023-04-29T02:14:42.697Z,87.85
2023-04-29T02:17:11.651Z,87.48
2023-04-29T02:19:38.212Z,88.12
2023-04-29T02:22:04.759Z,87.42
2023-04-29T02:24:33.691Z,88.21
2023-04-29T02:27:00.252Z,88.34
2023-04-29T02:29:27.712Z,88.37
2023-04-29T02:31:54.290Z,88.12
2023-04-29T02:34:20.772Z,88.44
2023-04-29T02:36:47.301Z,89.03
2023-04-29T02:39:13.839Z,88.34
2023-04-29T02:41:40.720Z,88.70
2023-04-29T02:44:07.242Z,88.50
2023-04-29T02:46:35.998Z,88.40
2023-04-29T02:49:03.707Z,88.35
2023-04-29T02:51:30.772Z,88.25
2023-04-29T02:53:57.508Z,87.67
2023-04-29T02:56:23.984Z,87.17
2023-04-29T02:58:50.457Z,87.70
2023-04-29T03:01:17.050Z,87.58
2023-04-29T03:03:43.710Z,88.70
2023-04-29T03:06:10.267Z,88.45
2023-04-29T03:08:36.725Z,87.69
2023-04-29T03:11:03.191Z,88.22
2023-04-29T03:13:29.738Z,87.40
2023-04-29T03:15:58.661Z,88.43
2023-04-29T03:18:25.158Z,88.48
2023-04-29T03:20:51.793Z,87.22
2023-04-29T03:23:18.276Z,88.08
2023-04-29T03:25:44.802Z,87.59
2023-04-29T03:28:11.275Z,88.12
2023-04-29T03:30:37.833Z,88.24
2023-04-29T03:33:04.441Z,87.39
2023-04-29T03:35:31.027Z,87.22
2023-04-29T03:37:57.546Z,87.14
2023-04-29T03:40:24.059Z,86.97
2023-04-29T03:42:50.739Z,87.86
2023-04-29T03:45:17.732Z,87.98
2023-04-29T03:47:44.442Z,87.11
2023-04-29T03:50:11.904Z,87.20
2023-04-29T03:52:38.792Z,87.14
2023-04-29T03:55:05.639Z,87.83
2023-04-29T03:57:32.137Z,87.22
2023-04-29T03:59:58.599Z,87.74
2023-04-29T04:02:25.288Z,87.96
2023-04-29T04:04:52.342Z,87.37
2023-04-29T04:07:18.890Z,87.26
2023-04-29T04:09:46.036Z,87.72
2023-04-29T04:12:12.530Z,87.99
2023-04-29T04:14:39.241Z,87.29
2023-04-29T04:17:05.788Z,87.93
2023-04-29T04:19:32.801Z,88.24
2023-04-29T04:21:59.497Z,87.16
2023-04-29T04:24:25.963Z,87.23
2023-04-29T04:26:52.398Z,87.55
2023-04-29T04:29:18.924Z,87.36
2023-04-29T04:31:47.018Z,87.82
2023-04-29T04:34:13.830Z,87.36
2023-04-29T04:36:40.344Z,87.52
2023-04-29T04:39:06.823Z,87.67
2023-04-29T04:41:33.485Z,87.97
2023-04-29T04:43:59.994Z,87.84
2023-04-29T04:46:26.462Z,87.78
2023-04-29T04:48:52.933Z,87.56
2023-04-29T04:51:19.472Z,87.76
2023-04-29T04:53:46.044Z,87.90
2023-04-29T04:56:12.783Z,87.97
2023-04-29T04:58:39.284Z,87.74
2023-04-29T05:01:05.911Z,88.16
2023-04-29T05:03:32.542Z,87.50
2023-04-29T05:06:00.492Z,87.83
2023-04-29T05:08:27.298Z,87.93
2023-04-29T05:10:54.433Z,88.13
2023-04-29T05:13:21.229Z,87.89
2023-04-29T05:15:47.994Z,88.27
2023-04-29T05:18:14.524Z,88.28
2023-04-29T05:20:41.004Z,88.00
2023-04-29T05:23:07.563Z,88.29
2023-04-29T05:25:34.056Z,88.29
2023-04-29T05:28:00.834Z,88.12
2023-04-29T05:30:27.310Z,88.36
2023-04-29T05:32:53.891Z,88.31
2023-04-29T05:35:20.431Z,88.05
2023-04-29T05:37:46.922Z,88.56
2023-04-29T05:40:13.456Z,88.36
2023-04-29T05:42:40.020Z,88.46
2023-04-29T05:45:07.197Z,88.72
2023-04-29T05:47:33.902Z,89.09
2023-04-29T05:50:00.797Z,89.39
2023-04-29T05:52:27.283Z,88.75
2023-04-29T05:54:53.758Z,89.16
2023-04-29T05:57:20.294Z,89.29
2023-04-29T05:59:46.851Z,89.59
2023-04-29T06:02:14.589Z,89.03
2023-04-29T06:04:42.031Z,88.77
2023-04-29T06:07:09.336Z,89.69
2023-04-29T06:09:37.178Z,89.84
2023-04-29T06:12:03.863Z,89.13
2023-04-29T06:14:32.714Z,88.91
2023-04-29T06:16:59.175Z,90.28
2023-04-29T06:19:25.813Z,89.17
2023-04-29T06:21:52.328Z,89.04
2023-04-29T06:24:18.849Z,89.49
2023-04-29T06:26:45.654Z,89.11
2023-04-29T06:29:12.381Z,89.44
2023-04-29T06:31:41.148Z,88.67
2023-04-29T06:34:07.892Z,89.21
2023-04-29T06:36:34.368Z,88.47
2023-04-29T06:39:00.938Z,88.26
2023-04-29T06:41:27.890Z,88.14
2023-04-29T06:43:54.368Z,87.60
2023-04-29T06:46:20.881Z,87.59
2023-04-29T06:48:47.577Z,87.74
2023-04-29T06:51:14.091Z,87.48
2023-04-29T06:53:40.655Z,87.43
2023-04-29T06:56:09.586Z,87.39
2023-04-29T06:58:38.362Z,86.49
2023-04-29T07:01:07.177Z,86.27
2023-04-29T07:03:33.962Z,85.50
2023-04-29T07:06:00.884Z,85.97
2023-04-29T07:08:28.686Z,84.91
2023-04-29T07:11:00.351Z,85.54
2023-04-29T07:13:29.853Z,83.72
2023-04-29T07:15:56.520Z,84.59
2023-04-29T07:18:23.289Z,84.17
2023-04-29T07:20:51.568Z,83.94
2023-04-29T07:23:18.042Z,82.43
2023-04-29T07:25:44.574Z,83.00
2023-04-29T07:28:11.194Z,82.75
2023-04-29T07:30:37.760Z,81.80
2023-04-29T07:33:04.607Z,80.98
2023-04-29T07:35:31.548Z,79.80
2023-04-29T07:37:58.153Z,79.65
2023-04-29T07:40:24.696Z,79.00
2023-04-29T07:42:51.530Z,78.66
2023-04-29T07:45:18.033Z,78.93
2023-04-29T07:47:45.497Z,78.24
2023-04-29T07:50:14.098Z,78.16
2023-04-29T07:52:40.691Z,77.17
2023-04-29T07:55:10.474Z,77.43
2023-04-29T07:57:37.091Z,76.46
2023-04-29T08:00:03.982Z,75.94
2023-04-29T08:02:30.736Z,74.83
2023-04-29T08:04:57.598Z,74.51
2023-04-29T08:07:24.860Z,73.50
2023-04-29T08:09:51.534Z,72.91
2023-04-29T08:12:18.123Z,73.28
2023-04-29T08:14:44.586Z,72.06
2023-04-29T08:17:11.348Z,72.41
2023-04-29T08:19:37.915Z,72.25
2023-04-29T08:22:04.511Z,71.64
2023-04-29T08:24:31.197Z,70.94
2023-04-29T08:26:59.203Z,71.19
2023-04-29T08:29:25.803Z,69.52
2023-04-29T08:31:52.473Z,70.30
2023-04-29T08:34:21.782Z,69.99
2023-04-29T08:36:48.256Z,68.90
2023-04-29T08:39:14.980Z,68.63
2023-04-29T08:41:44.071Z,68.08
2023-04-29T08:44:10.541Z,68.00
2023-04-29T08:46:38.338Z,67.71
2023-04-29T08:49:07.131Z,66.81
2023-04-29T08:51:34.703Z,66.64
2023-04-29T08:54:01.265Z,67.26
2023-04-29T08:56:30.997Z,66.49
2023-04-29T08:59:00.914Z,66.02
2023-04-29T09:01:29.141Z,64.25
2023-04-29T09:04:12.599Z,64.40
2023-04-29T09:06:39.403Z,65.03
2023-04-29T09:09:06.861Z,62.18
2023-04-29T09:11:34.326Z,63.97
2023-04-29T09:14:01.601Z,63.12
2023-04-29T09:16:29.465Z,62.38
2023-04-29T09:18:56.789Z,61.84
2023-04-29T09:21:25.627Z,62.04
2023-04-29T09:23:57.094Z,61.52
2023-04-29T09:26:24.250Z,61.00
2023-04-29T09:29:11.835Z,60.68
2023-04-29T09:31:39.521Z,60.40
2023-04-29T09:34:06.502Z,58.60
2023-04-29T09:36:37.734Z,57.12
2023-04-29T09:39:22.133Z,55.81
2023-04-29T09:41:54.776Z,56.91
2023-04-29T09:44:32.068Z,58.20
2023-04-29T09:47:04.606Z,57.66
2023-04-29T09:49:35.809Z,57.37
2023-04-29T09:52:04.577Z,55.65
2023-04-29T09:54:32.963Z,56.29
2023-04-29T09:57:03.232Z,54.55
2023-04-29T09:59:29.854Z,54.36
2023-04-29T10:01:57.711Z,53.70
2023-04-29T10:04:26.932Z,53.42
2023-04-29T10:06:55.397Z,52.44
2023-04-29T10:09:23.572Z,52.41
2023-04-29T10:11:52.355Z,51.31
2023-04-29T10:14:23.547Z,50.96
2023-04-29T10:16:59.589Z,49.29
2023-04-29T10:19:35.636Z,47.42
2023-04-29T10:22:08.836Z,47.34
2023-04-29T10:24:37.855Z,48.71
2023-04-29T10:27:07.943Z,45.00
2023-04-29T10:29:37.007Z,47.31
2023-04-29T10:32:04.699Z,46.81
2023-04-29T10:34:33.634Z,48.21
2023-04-29T10:37:00.531Z,47.86
2023-04-29T10:39:36.143Z,46.71
2023-04-29T10:42:05.812Z,46.87
2023-04-29T10:44:32.293Z,46.09
2023-04-29T10:47:21.271Z,44.45
2023-04-29T10:50:04.557Z,39.74
2023-04-29T10:52:31.324Z,44.10
2023-04-29T10:55:04.190Z,42.77
2023-04-29T10:57:30.884Z,43.25
2023-04-29T10:59:57.347Z,42.52
2023-04-29T11:02:23.913Z,41.81
2023-04-29T11:05:10.201Z,40.16
2023-04-29T11:07:37.045Z,42.22
2023-04-29T11:10:04.080Z,41.65
2023-04-29T11:12:30.618Z,41.12
2023-04-29T11:15:04.715Z,40.07
2023-04-29T11:17:38.461Z,41.06
2023-04-29T11:20:13.374Z,39.65
2023-04-29T11:22:50.753Z,40.92
2023-04-29T11:25:17.757Z,40.01
2023-04-29T11:27:47.675Z,40.17
2023-04-29T11:30:15.148Z,40.06
2023-04-29T11:32:42.913Z,38.53
2023-04-29T11:35:20.229Z,39.27
2023-04-29T11:37:47.128Z,40.07
2023-04-29T11:40:14.516Z,40.06
2023-04-29T11:42:43.610Z,39.25
2023-04-29T11:45:12.920Z,36.26
2023-04-29T11:47:43.672Z,37.91
2023-04-29T11:50:10.675Z,39.03
2023-04-29T11:52:39.177Z,39.10
2023-04-29T11:55:08.602Z,37.76
2023-04-29T11:57:36.320Z,39.06
2023-04-29T12:00:06.104Z,39.65
2023-04-29T12:02:34.942Z,37.91
2023-04-29T12:07:34.256Z,38.46
2023-04-29T12:10:00.947Z,37.65
2023-04-29T12:12:28.360Z,37.52
2023-04-29T12:14:55.545Z,38.07
2023-04-29T12:17:24.935Z,37.94
2023-04-29T12:19:51.692Z,37.80
2023-04-29T12:22:19.871Z,38.02
2023-04-29T12:24:47.086Z,37.12
2023-04-29T12:27:13.668Z,36.66
2023-04-29T12:29:42.988Z,38.52
2023-04-29T12:32:16.655Z,38.74
2023-04-29T12:34:46.257Z,38.42
2023-04-29T12:37:13.410Z,38.08
2023-04-29T12:39:39.874Z,38.13
2023-04-29T12:42:06.566Z,38.49
2023-04-29T12:44:40.772Z,38.24
2023-04-29T12:47:11.433Z,37.72
2023-04-29T12:49:38.760Z,37.92
2023-04-29T12:52:06.241Z,37.08
2023-04-29T12:54:32.744Z,37.29
2023-04-29T12:57:02.010Z,37.06
2023-04-29T12:59:28.551Z,36.74
2023-04-29T13:01:55.094Z,37.96
2023-04-29T13:04:21.879Z,37.75
2023-04-29T13:06:49.644Z,37.52
2023-04-29T13:09:18.809Z,37.97
2023-04-29T13:11:46.433Z,38.01
2023-04-29T13:14:14.348Z,36.83
2023-04-29T13:16:41.105Z,36.86
2023-04-29T13:19:26.647Z,37.47
2023-04-29T13:21:54.348Z,37.13
2023-04-29T13:24:24.044Z,36.90
2023-04-29T13:26:52.629Z,37.33
2023-04-29T13:29:19.464Z,37.75
2023-04-29T13:31:46.062Z,37.66
2023-04-29T13:34:12.640Z,37.87
2023-04-29T13:36:39.615Z,37.05
2023-04-29T13:39:06.270Z,37.93
2023-04-29T13:41:35.475Z,37.85
2023-04-29T13:44:02.706Z,37.96
2023-04-29T13:46:31.478Z,38.32
2023-04-29T13:49:17.113Z,37.95
2023-04-29T13:52:30.603Z,39.08
2023-04-29T13:57:55.121Z,39.59
2023-04-29T13:59:53.200Z,39.46
2023-04-29T14:04:49.747Z,39.52
2023-04-29T14:07:16.765Z,38.99
2023-04-29T14:09:43.394Z,38.59
2023-04-29T14:12:10.400Z,38.50
2023-04-29T14:14:36.952Z,38.41
2023-04-29T14:17:03.771Z,38.39
2023-04-29T14:19:30.383Z,37.45
2023-04-29T14:21:57.008Z,37.57
2023-04-29T14:24:23.486Z,37.07
2023-04-29T14:26:49.966Z,37.93
2023-04-29T14:29:16.444Z,36.70
2023-04-29T14:31:43.041Z,36.22
2023-04-29T14:34:09.585Z,35.92
2023-04-29T14:36:36.178Z,35.81
2023-04-29T14:39:04.267Z,35.53
2023-04-29T14:41:30.871Z,34.87
2023-04-29T14:43:57.360Z,35.12
2023-04-29T14:46:25.221Z,34.64
2023-04-29T14:48:52.181Z,35.21
2023-04-29T14:51:18.651Z,35.32
2023-04-29T14:53:45.172Z,35.92
2023-04-29T14:56:11.804Z,36.33
2023-04-29T14:58:40.844Z,36.89
2023-04-29T15:01:07.479Z,37.34
2023-04-29T15:03:34.100Z,37.14
2023-04-29T15:06:04.400Z,37.34
2023-04-29T15:08:31.549Z,37.95
2023-04-29T15:10:58.350Z,38.81
2023-04-29T15:13:24.905Z,38.80
2023-04-29T15:15:52.377Z,39.11
2023-04-29T15:18:18.972Z,39.62
2023-04-29T15:20:46.194Z,38.51
2023-04-29T15:23:12.781Z,39.12
2023-04-29T15:25:41.974Z,38.87
2023-04-29T15:28:11.037Z,38.87
2023-04-29T15:30:38.096Z,39.83
2023-04-29T15:33:04.723Z,38.73
2023-04-29T15:35:31.808Z,39.32
2023-04-29T15:37:59.274Z,39.58
2023-04-29T15:40:26.209Z,39.20
2023-04-29T15:42:53.100Z,39.36
2023-04-29T15:45:19.949Z,38.38
2023-04-29T15:47:47.316Z,39.05
2023-04-29T15:50:13.940Z,39.30
2023-04-29T15:52:40.561Z,39.64
2023-04-29T15:55:07.430Z,39.91
2023-04-29T15:57:34.882Z,40.25
2023-04-29T16:00:01.576Z,40.30
2023-04-29T16:02:28.388Z,40.28
2023-04-29T16:04:55.017Z,40.79
2023-04-29T16:07:21.702Z,39.77
2023-04-29T16:09:49.027Z,40.16
2023-04-29T16:12:18.000Z,39.65
2023-04-29T16:14:44.951Z,39.97
2023-04-29T16:17:13.495Z,39.12
2023-04-29T16:19:41.475Z,39.15
2023-04-29T16:22:08.028Z,39.42
2023-04-29T16:24:34.572Z,38.73
2023-04-29T16:27:01.500Z,38.69
2023-04-29T16:29:28.136Z,38.77
2023-04-29T16:31:55.173Z,38.89
2023-04-29T16:34:21.634Z,39.31
2023-04-29T16:36:48.244Z,38.73
2023-04-29T16:39:16.303Z,39.34
2023-04-29T16:41:42.793Z,39.63
2023-04-29T16:44:09.348Z,39.47
2023-04-29T16:46:36.207Z,39.59
2023-04-29T16:49:03.292Z,40.39
2023-04-29T16:51:30.113Z,40.48
2023-04-29T16:53:56.688Z,40.78
2023-04-29T16:56:23.188Z,40.32
2023-04-29T16:58:49.688Z,40.62
2023-04-29T17:01:19.145Z,40.96
2023-04-29T17:03:47.606Z,41.48
2023-04-29T17:06:15.239Z,41.89
2023-04-29T17:08:41.785Z,41.73
2023-04-29T17:11:08.276Z,42.13
2023-04-29T17:13:34.755Z,41.76
2023-04-29T17:16:01.512Z,41.87
2023-04-29T17:18:28.167Z,42.19
2023-04-29T17:20:58.137Z,42.65
2023-04-29T17:23:24.891Z,42.33
2023-04-29T17:25:51.469Z,42.52
2023-04-29T17:28:20.208Z,42.54
2023-04-29T17:30:46.688Z,42.75
2023-04-29T17:33:14.124Z,42.55
2023-04-29T17:35:45.710Z,42.32
2023-04-29T17:38:13.981Z,42.37
2023-04-29T17:40:40.506Z,42.29
2023-04-29T17:43:07.035Z,42.46
2023-04-29T17:45:33.631Z,42.70
2023-04-29T17:48:00.944Z,43.00
2023-04-29T17:50:27.880Z,43.08
2023-04-29T17:52:54.510Z,43.40
2023-04-29T17:55:21.140Z,43.45
2023-04-29T17:57:47.703Z,43.39
2023-04-29T18:00:14.472Z,43.58
2023-04-29T18:02:41.331Z,43.37
2023-04-29T18:05:08.489Z,43.95
2023-04-29T18:07:35.206Z,43.75
2023-04-29T18:10:01.969Z,43.94
2023-04-29T18:12:28.664Z,44.01
2023-04-29T18:14:55.262Z,44.59
2023-04-29T18:17:22.139Z,44.33
2023-04-29T18:19:51.577Z,44.73
2023-04-29T18:22:20.303Z,44.81
2023-04-29T18:24:48.513Z,45.04
2023-04-29T18:27:15.275Z,45.28
2023-04-29T18:29:42.070Z,45.81
2023-04-29T18:32:08.880Z,46.05
2023-04-29T18:34:35.765Z,46.54
2023-04-29T18:37:02.292Z,46.13
2023-04-29T18:39:28.908Z,47.19
2023-04-29T18:41:56.115Z,47.29
2023-04-29T18:44:22.772Z,47.26
2023-04-29T18:46:49.626Z,47.43
2023-04-29T18:49:17.950Z,47.73
2023-04-29T18:51:48.170Z,47.99
2023-04-29T18:54:16.625Z,48.63
2023-04-29T18:56:46.731Z,49.10
2023-04-29T18:59:19.479Z,49.46
2023-04-29T19:01:47.575Z,49.84
2023-04-29T19:04:14.708Z,49.97
2023-04-29T19:06:42.256Z,50.30
2023-04-29T19:09:09.159Z,50.69
2023-04-29T19:11:36.343Z,51.90
2023-04-29T19:14:06.010Z,52.63
2023-04-29T19:16:35.530Z,53.00
2023-04-29T19:19:04.239Z,53.16
2023-04-29T19:21:33.213Z,54.20
2023-04-29T19:24:00.084Z,54.58
2023-04-29T19:26:26.735Z,54.70
2023-04-29T19:28:53.410Z,55.82
2023-04-29T19:31:20.096Z,55.82
2023-04-29T19:33:46.869Z,55.94
2023-04-29T19:36:14.370Z,56.42
2023-04-29T19:38:41.052Z,56.81
2023-04-29T19:41:09.782Z,57.29
2023-04-29T19:43:36.590Z,57.52
2023-04-29T19:46:03.435Z,57.63
2023-04-29T19:48:30.219Z,57.86
2023-04-29T19:50:59.498Z,58.26
2023-04-29T19:53:27.042Z,58.70
2023-04-29T19:55:54.186Z,58.81
2023-04-29T19:58:23.393Z,58.83
2023-04-29T20:00:53.146Z,59.44
2023-04-29T20:03:20.107Z,59.38
2023-04-29T20:05:47.425Z,59.51
2023-04-29T20:08:13.937Z,60.07
2023-04-29T20:10:41.667Z,59.74
2023-04-29T20:13:08.278Z,59.53
2023-04-29T20:15:35.398Z,60.01
2023-04-29T20:18:02.243Z,59.97
2023-04-29T20:20:28.865Z,60.28
2023-04-29T20:22:58.185Z,61.18
2023-04-29T20:25:25.804Z,60.81
2023-04-29T20:27:53.751Z,60.86
2023-04-29T20:30:20.757Z,61.44
2023-04-29T20:32:47.397Z,62.04
2023-04-29T20:35:15.071Z,61.57
2023-04-29T20:37:41.728Z,62.72
2023-04-29T20:40:09.852Z,63.09
2023-04-29T20:42:36.551Z,62.59
2023-04-29T20:45:03.917Z,62.99
2023-04-29T20:47:30.685Z,62.63
2023-04-29T20:49:57.242Z,63.80
2023-04-29T20:52:26.284Z,63.22
2023-04-29T20:54:53.060Z,63.92
2023-04-29T20:57:21.216Z,64.31
2023-04-29T20:59:47.884Z,63.81
2023-04-29T21:02:14.684Z,64.11
2023-04-29T21:04:41.337Z,64.44
2023-04-29T21:07:08.418Z,64.73
2023-04-29T21:09:35.995Z,65.00
2023-04-29T21:12:05.421Z,65.59
2023-04-29T21:14:32.953Z,65.50
2023-04-29T21:16:59.786Z,65.51
2023-04-29T21:19:26.428Z,65.65
2023-04-29T21:21:53.003Z,65.79
2023-04-29T21:24:22.246Z,66.00
2023-04-29T21:26:51.806Z,66.29
2023-04-29T21:29:19.921Z,66.75
2023-04-29T21:31:46.536Z,66.65
2023-04-29T21:34:13.309Z,66.82
2023-04-29T21:36:39.937Z,66.70
2023-04-29T21:39:06.662Z,67.14
2023-04-29T21:41:39.723Z,66.78
2023-04-29T21:44:07.468Z,66.86
2023-04-29T21:46:34.916Z,66.77
2023-04-29T21:49:02.829Z,67.24
2023-04-29T21:51:30.048Z,67.14
2023-04-29T21:53:57.590Z,67.42
2023-04-29T21:56:24.443Z,67.00
2023-04-29T21:58:51.430Z,67.83
2023-04-29T22:01:29.594Z,66.88
2023-04-29T22:03:57.414Z,67.42
2023-04-29T22:06:24.819Z,67.22
2023-04-29T22:08:53.877Z,67.94
2023-04-29T22:11:21.995Z,68.16
2023-04-29T22:13:49.223Z,68.15
2023-04-29T22:16:18.550Z,67.72
2023-04-29T22:18:45.491Z,67.93
2023-04-29T22:21:12.012Z,68.00
2023-04-29T22:23:38.586Z,67.99
2023-04-29T22:26:05.254Z,68.32
2023-04-29T22:28:32.051Z,68.06
2023-04-29T22:30:58.545Z,68.57
2023-04-29T22:33:25.281Z,68.09
2023-04-29T22:35:51.788Z,68.68
2023-04-29T22:38:18.385Z,68.52
2023-04-29T22:40:52.388Z,69.29
2023-04-29T22:43:18.918Z,68.79
2023-04-29T22:45:52.780Z,69.54
2023-04-29T22:48:19.704Z,69.17
2023-04-29T22:50:53.841Z,70.29
2023-04-29T22:53:20.725Z,68.94
2023-04-29T22:55:54.398Z,69.47
2023-04-29T22:58:21.179Z,69.73
2023-04-29T23:01:00.709Z,70.07
2023-04-29T23:03:27.719Z,69.29
2023-04-29T23:05:59.236Z,70.33
2023-04-29T23:08:27.244Z,69.47
2023-04-29T23:10:53.891Z,69.95
2023-04-29T23:13:20.544Z,70.46
2023-04-29T23:15:47.067Z,70.07
2023-04-29T23:18:14.307Z,70.25
2023-04-29T23:20:40.938Z,70.15
2023-04-29T23:23:07.550Z,70.81
2023-04-29T23:25:34.756Z,70.83
2023-04-29T23:28:01.343Z,70.84
2023-04-29T23:30:27.944Z,70.89
2023-04-29T23:32:54.549Z,71.12
2023-04-29T23:35:21.652Z,70.80
2023-04-29T23:37:49.305Z,71.40
2023-04-29T23:40:18.533Z,71.46
2023-04-29T23:42:48.124Z,71.62
2023-04-29T23:45:14.874Z,70.92
2023-04-29T23:47:41.683Z,71.56
2023-04-29T23:50:08.869Z,72.01
2023-04-29T23:52:35.359Z,71.06
2023-04-29T23:55:02.233Z,71.47
2023-04-29T23:57:28.789Z,72.40
2023-04-29T23:59:55.706Z,71.63
